Time;durP1;ratioP1;P1;durP2;ratioP2;P2;SDS_P1;SDS_P2;PMS_P1;PMS_P2;Temp;Humidity;BMP_temperature;BMP_pressure;BME280_temperature;BME280_humidity;BME280_pressure;Samples;Min_cycle;Max_cycle;Signal;HPM_P1;HPM_P2
2023/08/17 00:01:02;;;;;;;16.48;10.65;;;24.40;99.90;;;;;;5077465;28;20400;-76
2023/08/17 00:03:29;;;;;;;14.35;10.25;;;24.30;99.90;;;;;;5075226;28;20044;-77
2023/08/17 00:05:57;;;;;;;14.77;10.65;;;24.00;99.90;;;;;;5082071;28;20056;-79
2023/08/17 00:08:24;;;;;;;13.48;10.52;;;24.20;99.90;;;;;;5086020;28;20100;-78
2023/08/17 00:10:51;;;;;;;14.80;9.85;;;24.00;99.90;;;;;;5085655;28;20040;-78
2023/08/17 00:13:18;;;;;;;13.75;10.93;;;23.70;99.90;;;;;;5085047;28;20054;-80
2023/08/17 00:15:47;;;;;;;13.98;10.40;;;24.20;99.90;;;;;;5086748;28;20038;-80
2023/08/17 00:18:14;;;;;;;15.75;10.15;;;24.40;99.90;;;;;;5093988;28;20067;-79
2023/08/17 00:20:41;;;;;;;12.88;9.68;;;24.60;99.90;;;;;;5062455;28;20070;-77
2023/08/17 00:23:09;;;;;;;14.00;9.45;;;24.70;99.90;;;;;;5080297;28;20068;-78
2023/08/17 00:25:36;;;;;;;13.75;10.48;;;24.60;99.90;;;;;;5063670;28;20078;-78
2023/08/17 00:28:03;;;;;;;13.60;9.88;;;24.70;99.90;;;;;;5078165;28;20043;-77
2023/08/17 00:30:35;;;;;;;14.40;10.70;;;24.70;99.90;;;;;;5075673;28;20036;-79
2023/08/17 00:33:08;;;;;;;13.30;9.60;;;24.60;99.90;;;;;;5060891;28;20055;-77
2023/08/17 00:35:36;;;;;;;12.65;9.77;;;24.40;99.90;;;;;;5091290;28;20066;-78
2023/08/17 00:38:05;;;;;;;13.35;10.40;;;24.20;99.90;;;;;;5085998;28;20045;-79
2023/08/17 00:40:33;;;;;;;16.50;9.73;;;24.30;99.90;;;;;;5077648;28;20048;-77
2023/08/17 00:43:00;;;;;;;13.05;10.02;;;24.40;99.90;;;;;;5074888;28;20041;-76
2023/08/17 00:45:27;;;;;;;12.02;9.55;;;24.40;99.90;;;;;;5069245;28;20045;-76
2023/08/17 00:47:58;;;;;;;14.02;9.80;;;24.50;99.90;;;;;;5088590;28;20444;-75
2023/08/17 00:50:26;;;;;;;;;;;24.20;99.90;;;;;;5074367;28;20047;-77
2023/08/17 00:52:54;;;;;;;13.20;9.98;;;24.10;99.90;;;;;;5077719;28;19951;-77
2023/08/17 00:55:22;;;;;;;14.60;10.05;;;24.20;99.90;;;;;;5089506;28;20107;-78
2023/08/17 00:57:52;;;;;;;13.80;10.18;;;24.40;99.90;;;;;;5066363;28;20098;-77
2023/08/17 01:00:20;;;;;;;14.70;9.93;;;24.60;99.90;;;;;;5075777;28;20040;-76
2023/08/17 01:02:47;;;;;;;12.00;9.25;;;24.60;99.90;;;;;;5083761;28;20114;-76
2023/08/17 01:05:15;;;;;;;12.65;9.82;;;24.60;99.90;;;;;;5078182;28;20037;-76
2023/08/17 01:07:43;;;;;;;12.13;9.98;;;24.70;99.90;;;;;;5076905;28;20047;-76
2023/08/17 01:10:12;;;;;;;13.25;9.75;;;24.80;99.90;;;;;;5076150;28;20055;-78
2023/08/17 01:12:50;;;;;;;12.90;9.65;;;24.60;99.90;;;;;;5072172;28;20070;-76
2023/08/17 01:15:28;;;;;;;13.80;10.15;;;24.60;99.90;;;;;;5081000;28;20040;-77
2023/08/17 01:18:10;;;;;;;13.02;10.25;;;24.60;99.90;;;;;;5068418;28;20503;-78
2023/08/17 01:20:39;;;;;;;17.35;10.65;;;24.50;99.90;;;;;;5057171;28;20040;-77
2023/08/17 01:23:07;;;;;;;14.55;9.48;;;24.30;99.90;;;;;;5055575;28;20048;-77
2023/08/17 01:25:38;;;;;;;11.88;10.00;;;24.00;99.90;;;;;;5075530;28;20115;-78
2023/08/17 01:28:06;;;;;;;14.32;10.10;;;23.80;99.90;;;;;;5085898;28;20036;-77
2023/08/17 01:30:57;;;;;;;11.90;9.82;;;23.70;99.90;;;;;;5072561;28;20094;-75
2023/08/17 01:33:36;;;;;;;17.33;9.77;;;23.70;99.90;;;;;;5059625;28;20037;-77
2023/08/17 01:36:24;;;;;;;13.13;10.05;;;23.80;99.90;;;;;;5082915;28;20070;-77
2023/08/17 01:38:55;;;;;;;12.25;8.90;;;23.90;99.90;;;;;;5059585;28;20408;-76
2023/08/17 01:41:23;;;;;;;15.60;12.25;;;24.20;99.90;;;;;;5062877;28;20473;-75
2023/08/17 01:43:52;;;;;;;15.27;9.70;;;24.30;99.90;;;;;;5070616;28;20126;-79
2023/08/17 01:46:19;;;;;;;12.35;9.57;;;24.30;99.90;;;;;;5066238;28;20053;-77
2023/08/17 01:48:50;;;;;;;17.00;10.27;;;24.20;99.90;;;;;;5065469;28;20131;-77
2023/08/17 01:51:22;;;;;;;12.65;9.55;;;24.20;99.90;;;;;;5078938;28;20515;-77
2023/08/17 01:53:49;;;;;;;15.15;10.27;;;24.20;99.90;;;;;;5079126;28;20039;-77
2023/08/17 01:56:16;;;;;;;12.52;8.90;;;24.10;99.90;;;;;;5076929;28;20048;-78
2023/08/17 01:58:44;;;;;;;13.60;10.27;;;23.50;99.90;;;;;;5055964;28;20393;-78
2023/08/17 02:01:11;;;;;;;13.13;9.80;;;23.50;99.90;;;;;;5047216;28;20075;-76
2023/08/17 02:03:38;;;;;;;15.10;9.65;;;23.90;99.90;;;;;;5040422;28;20074;-76
2023/08/17 02:06:07;;;;;;;13.65;9.48;;;24.00;99.90;;;;;;5079921;28;20405;-78
2023/08/17 02:08:45;;;;;;;13.82;9.77;;;24.10;99.90;;;;;;5071071;28;20508;-78
2023/08/17 02:11:13;;;;;;;12.90;9.02;;;23.60;99.90;;;;;;5072692;28;20040;-76
2023/08/17 02:13:40;;;;;;;12.25;10.00;;;23.50;99.90;;;;;;5065180;28;20040;-77
2023/08/17 02:16:07;;;;;;;14.65;10.50;;;23.40;99.90;;;;;;5051071;28;20040;-77
2023/08/17 02:18:35;;;;;;;14.23;10.35;;;23.30;99.90;;;;;;5083882;28;20067;-77
2023/08/17 02:21:02;;;;;;;15.18;9.40;;;23.30;99.90;;;;;;5078180;28;20516;-77
2023/08/17 02:23:30;;;;;;;14.40;9.93;;;23.60;99.90;;;;;;5082510;28;20091;-75
2023/08/17 02:25:57;;;;;;;11.77;9.93;;;23.90;99.90;;;;;;5066012;28;20055;-75
2023/08/17 02:28:24;;;;;;;14.73;9.80;;;24.00;99.90;;;;;;5078103;28;20040;-76
2023/08/17 02:30:56;;;;;;;16.00;10.18;;;24.00;99.90;;;;;;5081391;28;20052;-75
2023/08/17 02:33:24;;;;;;;12.40;9.20;;;23.80;99.90;;;;;;5077729;28;20046;-77
2023/08/17 02:35:51;;;;;;;11.75;9.35;;;23.90;99.90;;;;;;5064117;28;20040;-76
2023/08/17 02:38:19;;;;;;;13.10;9.45;;;23.70;99.90;;;;;;5088581;28;20464;-75
2023/08/17 02:40:50;;;;;;;17.63;10.23;;;23.80;99.90;;;;;;5077765;28;20059;-72
2023/08/17 02:43:17;;;;;;;;;;;23.50;99.90;;;;;;5084185;28;20042;-75
2023/08/17 02:45:44;;;;;;;13.02;9.57;;;23.20;99.90;;;;;;5088317;28;20281;-75
2023/08/17 02:48:12;;;;;;;13.80;9.32;;;23.30;99.90;;;;;;5082822;28;20116;-74
2023/08/17 02:50:39;;;;;;;15.80;10.25;;;23.50;99.90;;;;;;5091609;28;20044;-76
2023/08/17 02:53:07;;;;;;;16.27;10.65;;;23.40;99.90;;;;;;5057339;28;20067;-76
2023/08/17 02:55:34;;;;;;;13.30;9.50;;;23.60;99.90;;;;;;5061037;28;20044;-75
2023/08/17 02:58:02;;;;;;;14.13;9.48;;;23.40;99.90;;;;;;5093679;28;20044;-76
2023/08/17 03:00:29;;;;;;;14.65;10.23;;;23.30;99.90;;;;;;5074335;28;20040;-76
2023/08/17 03:02:57;;;;;;;13.98;10.65;;;23.30;99.90;;;;;;5084557;28;20044;-76
2023/08/17 03:05:24;;;;;;;12.80;9.85;;;23.40;99.90;;;;;;5080995;28;20044;-78
2023/08/17 03:07:53;;;;;;;20.90;10.30;;;23.50;99.90;;;;;;5092307;28;20055;-76
2023/08/17 03:10:20;;;;;;;12.80;9.80;;;23.50;99.90;;;;;;5078215;28;20120;-77
2023/08/17 03:12:48;;;;;;;12.88;10.30;;;23.20;99.90;;;;;;5076050;28;20048;-77
2023/08/17 03:15:16;;;;;;;13.82;9.77;;;23.40;99.90;;;;;;5058961;28;20048;-78
2023/08/17 03:17:44;;;;;;;15.05;10.20;;;23.30;99.90;;;;;;5086828;28;20036;-78
2023/08/17 03:20:11;;;;;;;16.98;10.60;;;23.50;99.90;;;;;;5082849;28;20445;-77
2023/08/17 03:22:39;;;;;;;12.90;10.38;;;23.40;99.90;;;;;;5075161;28;20047;-77
2023/08/17 03:25:07;;;;;;;13.65;9.90;;;23.50;99.90;;;;;;5075625;28;20041;-76
2023/08/17 03:27:34;;;;;;;13.32;10.85;;;23.60;99.90;;;;;;5073968;28;20029;-76
2023/08/17 03:30:01;;;;;;;18.92;10.68;;;23.30;99.90;;;;;;5079370;28;20032;-75
2023/08/17 03:32:29;;;;;;;14.75;10.38;;;23.40;99.90;;;;;;5079981;28;20028;-78
2023/08/17 03:34:56;;;;;;;16.17;10.55;;;23.10;99.90;;;;;;5073244;28;20089;-79
2023/08/17 03:37:23;;;;;;;16.45;11.88;;;23.10;99.90;;;;;;5072963;28;20045;-77
2023/08/17 03:39:51;;;;;;;16.42;10.32;;;22.80;99.90;;;;;;5072261;28;20051;-77
2023/08/17 03:42:18;;;;;;;18.73;10.57;;;22.70;99.90;;;;;;5075594;28;20048;-77
2023/08/17 03:44:46;;;;;;;14.65;10.45;;;22.60;99.90;;;;;;5078795;28;20040;-76
2023/08/17 03:47:14;;;;;;;15.00;10.73;;;22.60;99.90;;;;;;5070077;28;20080;-76
2023/08/17 03:49:42;;;;;;;14.55;10.27;;;22.60;99.90;;;;;;5058309;28;20043;-76
2023/08/17 03:52:11;;;;;;;12.57;10.18;;;22.60;99.90;;;;;;5081785;28;20477;-76
2023/08/17 03:54:38;;;;;;;13.15;10.60;;;22.60;99.90;;;;;;5046982;28;20486;-75
2023/08/17 03:57:05;;;;;;;16.60;11.35;;;22.60;99.90;;;;;;5078295;28;20115;-77
2023/08/17 03:59:32;;;;;;;13.43;10.52;;;22.60;99.90;;;;;;5084673;28;20666;-75
2023/08/17 04:02:00;;;;;;;14.65;10.48;;;22.50;99.90;;;;;;5057170;28;20040;-77
2023/08/17 04:04:27;;;;;;;17.58;10.57;;;22.50;99.90;;;;;;5058163;28;20044;-76
2023/08/17 04:06:55;;;;;;;14.70;10.30;;;22.30;99.90;;;;;;5077543;28;20036;-78
2023/08/17 04:09:23;;;;;;;17.33;11.25;;;22.40;99.90;;;;;;5065578;28;20204;-76
2023/08/17 04:11:50;;;;;;;13.93;10.13;;;22.50;99.90;;;;;;5076506;28;20113;-78
2023/08/17 04:14:17;;;;;;;16.02;11.43;;;22.50;99.90;;;;;;5077025;28;20064;-77
2023/08/17 04:16:46;;;;;;;17.02;10.85;;;22.60;99.90;;;;;;5070246;28;20046;-79
2023/08/17 04:19:15;;;;;;;17.20;10.70;;;22.50;99.90;;;;;;5092074;28;20033;-76
2023/08/17 04:21:42;;;;;;;13.68;11.20;;;22.60;99.90;;;;;;5077878;28;20457;-78
2023/08/17 04:24:10;;;;;;;14.73;10.73;;;22.50;99.90;;;;;;5085340;28;20520;-78
2023/08/17 04:26:38;;;;;;;16.00;10.38;;;22.60;99.90;;;;;;5077852;28;20046;-77
2023/08/17 04:29:05;;;;;;;14.30;10.25;;;22.60;99.90;;;;;;5078005;28;20071;-78
2023/08/17 04:31:33;;;;;;;15.25;10.90;;;22.60;99.90;;;;;;5073266;28;20070;-78
2023/08/17 04:34:00;;;;;;;17.10;10.70;;;22.70;99.90;;;;;;5075759;28;20493;-78
2023/08/17 04:36:27;;;;;;;12.95;9.63;;;22.70;99.90;;;;;;5072977;28;20039;-79
2023/08/17 04:38:55;;;;;;;13.27;10.10;;;22.80;99.90;;;;;;5076622;28;20390;-79
2023/08/17 04:41:23;;;;;;;16.58;11.10;;;22.90;99.90;;;;;;5057388;28;20051;-78
2023/08/17 04:43:51;;;;;;;14.95;10.63;;;22.80;99.90;;;;;;5071901;28;20087;-78
2023/08/17 04:46:19;;;;;;;14.70;11.60;;;22.80;99.90;;;;;;5077891;28;20059;-78
2023/08/17 04:48:49;;;;;;;15.40;10.90;;;22.80;99.90;;;;;;5074339;28;20068;-79
2023/08/17 04:51:16;;;;;;;16.17;11.00;;;22.90;99.90;;;;;;5059837;28;20056;-78
2023/08/17 04:53:44;;;;;;;17.17;10.73;;;23.00;99.90;;;;;;5076304;28;20486;-78
2023/08/17 04:56:11;;;;;;;15.60;11.25;;;23.10;99.90;;;;;;5083956;28;20055;-79
2023/08/17 04:58:39;;;;;;;17.95;12.00;;;23.10;99.90;;;;;;5091300;28;20061;-79
2023/08/17 05:01:06;;;;;;;16.15;11.55;;;23.20;99.90;;;;;;5070199;28;20489;-78
2023/08/17 05:03:34;;;;;;;18.05;11.70;;;23.20;99.90;;;;;;5058321;28;20048;-77
2023/08/17 05:06:03;;;;;;;17.15;10.90;;;23.40;99.90;;;;;;5073018;28;20032;-78
2023/08/17 05:08:30;;;;;;;19.55;12.57;;;23.40;99.90;;;;;;5076396;28;20047;-77
2023/08/17 05:10:57;;;;;;;16.17;10.88;;;23.40;99.90;;;;;;5082578;28;20055;-75
2023/08/17 05:13:24;;;;;;;16.40;10.90;;;23.30;99.90;;;;;;5054553;28;20041;-76
2023/08/17 05:15:52;;;;;;;19.77;12.40;;;23.50;99.90;;;;;;5056009;28;20126;-77
2023/08/17 05:18:19;;;;;;;15.50;11.05;;;23.40;99.90;;;;;;5087767;28;20036;-78
2023/08/17 05:20:46;;;;;;;18.27;11.35;;;23.50;99.90;;;;;;5065146;28;20079;-75
2023/08/17 05:23:14;;;;;;;20.13;11.63;;;23.40;99.90;;;;;;5055694;28;20040;-75
2023/08/17 05:25:42;;;;;;;15.35;11.75;;;23.50;99.90;;;;;;5064978;28;20052;-78
2023/08/17 05:28:09;;;;;;;17.00;11.70;;;23.60;99.90;;;;;;5054466;28;20383;-76
2023/08/17 05:30:36;;;;;;;17.45;12.15;;;23.60;99.90;;;;;;5081384;28;20044;-78
2023/08/17 05:33:07;;;;;;;19.42;12.35;;;23.70;99.90;;;;;;5040497;28;20041;-78
2023/08/17 05:35:34;;;;;;;16.23;12.00;;;23.80;99.90;;;;;;5055650;28;20508;-76
2023/08/17 05:38:01;;;;;;;17.85;12.32;;;23.60;99.90;;;;;;5069942;28;20388;-76
2023/08/17 05:40:32;;;;;;;21.23;12.40;;;23.40;99.90;;;;;;5072083;28;20042;-77
2023/08/17 05:43:00;;;;;;;18.88;12.48;;;23.50;99.90;;;;;;5085870;28;20040;-77
2023/08/17 05:45:27;;;;;;;17.98;12.95;;;23.90;99.90;;;;;;5069403;28;20082;-77
2023/08/17 05:47:54;;;;;;;17.50;12.32;;;23.70;99.90;;;;;;5073561;28;20111;-77
2023/08/17 05:50:22;;;;;;;19.35;12.95;;;23.80;99.90;;;;;;5087538;28;20036;-78
2023/08/17 05:52:49;;;;;;;17.40;12.30;;;24.10;99.90;;;;;;5086351;28;20080;-77
2023/08/17 05:55:17;;;;;;;18.25;12.65;;;24.20;99.90;;;;;;5057563;28;20389;-78
2023/08/17 05:57:44;;;;;;;17.63;12.10;;;24.00;99.90;;;;;;5075671;28;20082;-76
2023/08/17 06:00:12;;;;;;;19.10;12.15;;;23.70;99.90;;;;;;5081514;28;20466;-77
2023/08/17 06:02:39;;;;;;;19.33;13.05;;;23.50;99.90;;;;;;5097371;28;20044;-77
2023/08/17 06:05:08;;;;;;;19.90;14.00;;;23.40;99.90;;;;;;5076807;28;20048;-76
2023/08/17 06:07:36;;;;;;;21.02;13.38;;;23.50;99.90;;;;;;5078990;28;20047;-77
2023/08/17 06:10:06;;;;;;;17.55;13.02;;;23.40;99.90;;;;;;5066828;28;20048;-77
2023/08/17 06:12:34;;;;;;;18.45;13.18;;;23.60;99.90;;;;;;5083517;28;20060;-76
2023/08/17 06:15:05;;;;;;;19.90;13.50;;;23.90;99.90;;;;;;5090148;28;20040;-77
2023/08/17 06:17:34;;;;;;;20.38;12.70;;;24.30;99.90;;;;;;5094432;28;20049;-76
2023/08/17 06:20:02;;;;;;;20.70;14.45;;;24.50;99.90;;;;;;5088407;28;20124;-77
2023/08/17 06:22:30;;;;;;;17.55;12.73;;;24.10;99.90;;;;;;5078291;28;20051;-76
2023/08/17 06:24:58;;;;;;;15.77;12.50;;;24.30;99.90;;;;;;5087961;28;20048;-77
2023/08/17 06:27:25;;;;;;;18.10;12.32;;;24.60;99.90;;;;;;5073333;28;20047;-76
2023/08/17 06:29:53;;;;;;;18.67;12.35;;;24.70;99.90;;;;;;5093213;28;20040;-76
2023/08/17 06:32:24;;;;;;;17.75;12.20;;;24.80;99.90;;;;;;5105840;28;20044;-77
2023/08/17 06:34:54;;;;;;;16.60;12.35;;;24.80;99.90;;;;;;5081515;28;20052;-77
2023/08/17 06:37:22;;;;;;;16.90;11.35;;;24.30;99.90;;;;;;5077758;28;20107;-77
2023/08/17 06:39:51;;;;;;;15.40;12.00;;;24.70;99.90;;;;;;5058105;28;20041;-76
2023/08/17 06:42:19;;;;;;;15.13;12.10;;;24.90;99.90;;;;;;5089005;28;20075;-77
2023/08/17 06:44:46;;;;;;;19.17;11.52;;;25.00;99.90;;;;;;5080831;28;20072;-78
2023/08/17 06:47:14;;;;;;;18.65;12.18;;;25.10;99.90;;;;;;5088896;28;20055;-76
2023/08/17 06:50:05;;;;;;;18.73;12.40;;;25.10;99.90;;;;;;5095046;28;20028;-77
2023/08/17 06:53:02;;;;;;;14.70;11.27;;;25.10;99.90;;;;;;5083884;28;20040;-78
2023/08/17 06:55:52;;;;;;;16.58;11.15;;;25.00;99.90;;;;;;5091641;28;20637;-77
2023/08/17 06:58:44;;;;;;;18.35;12.57;;;25.10;99.90;;;;;;5099501;28;20050;-78
2023/08/17 07:01:38;;;;;;;17.25;12.88;;;25.30;99.90;;;;;;5075104;28;20056;-79
2023/08/17 07:04:31;;;;;;;16.98;12.05;;;25.30;99.90;;;;;;5096050;28;20167;-78
2023/08/17 07:07:22;;;;;;;19.77;11.80;;;25.40;99.90;;;;;;5104321;28;20046;-80
2023/08/17 07:10:13;;;;;;;15.65;12.05;;;25.40;99.90;;;;;;5105007;28;20024;-79
2023/08/17 07:20:41;;;;;;;14.80;10.63;;;25.40;99.90;;;;;;5085645;28;20062;-79
2023/08/17 07:23:14;;;;;;;16.85;11.60;;;25.60;99.90;;;;;;5101966;28;20033;-77
2023/08/17 07:25:44;;;;;;;16.35;11.20;;;25.70;99.90;;;;;;5101031;28;20495;-80
2023/08/17 07:28:15;;;;;;;15.75;11.32;;;25.70;99.90;;;;;;5099467;28;20045;-78
2023/08/17 07:30:49;;;;;;;16.05;11.48;;;25.50;99.90;;;;;;5095672;28;20056;-77
2023/08/17 07:33:41;;;;;;;19.63;11.02;;;25.30;99.90;;;;;;5093580;28;20016;-77
2023/08/17 07:36:08;;;;;;;15.02;10.98;;;25.20;99.90;;;;;;5071876;28;20040;-77
2023/08/17 07:38:36;;;;;;;22.85;11.02;;;25.20;99.90;;;;;;5098146;28;20040;-77
2023/08/17 07:41:13;;;;;;;14.10;10.20;;;25.30;99.90;;;;;;5087152;28;20493;-79
2023/08/17 07:43:42;;;;;;;14.13;10.88;;;25.40;99.90;;;;;;5086706;28;20033;-77
2023/08/17 07:46:09;;;;;;;13.15;10.40;;;25.40;99.90;;;;;;5065732;28;20066;-78
2023/08/17 07:48:41;;;;;;;19.42;10.93;;;25.50;99.90;;;;;;5064901;28;20060;-76
2023/08/17 07:51:14;;;;;;;15.70;10.90;;;25.50;99.90;;;;;;5067232;28;20043;-75
2023/08/17 07:53:46;;;;;;;35.58;23.67;;;25.80;99.90;;;;;;5060548;28;20098;-75
2023/08/17 07:56:14;;;;;;;50.53;30.75;;;25.90;99.90;;;;;;5088210;28;20075;-75
2023/08/17 07:58:41;;;;;;;17.25;13.00;;;26.00;99.90;;;;;;5090774;28;20036;-77
2023/08/17 08:01:13;;;;;;;26.17;19.38;;;26.10;99.90;;;;;;5082580;28;20052;-77
2023/08/17 08:03:40;;;;;;;29.80;22.95;;;26.20;99.90;;;;;;5089679;28;20047;-76
2023/08/17 08:06:59;;;;;;;35.83;27.10;;;26.10;99.90;;;;;;5093680;28;20123;-78
2023/08/17 08:09:27;;;;;;;24.33;17.92;;;25.80;99.90;;;;;;5074535;28;20033;-76
2023/08/17 08:11:56;;;;;;;16.58;11.15;;;25.80;99.90;;;;;;5080742;28;20041;-76
2023/08/17 08:14:48;;;;;;;15.30;10.82;;;25.70;99.90;;;;;;5095613;28;20077;-77
2023/08/17 08:17:16;;;;;;;57.08;40.60;;;26.00;99.90;;;;;;5089840;28;20367;-75
2023/08/17 08:19:43;;;;;;;43.70;33.47;;;26.10;99.90;;;;;;5086566;28;20055;-76
2023/08/17 08:22:12;;;;;;;21.23;17.58;;;26.10;99.90;;;;;;5091368;28;20036;-78
2023/08/17 08:24:41;;;;;;;18.13;15.38;;;26.30;99.90;;;;;;5090865;28;20481;-79
2023/08/17 08:27:24;;;;;;;13.73;10.05;;;26.40;99.90;;;;;;5085843;28;20048;-76
2023/08/17 08:29:58;;;;;;;13.25;10.25;;;26.40;99.90;;;;;;5081027;28;20094;-76
2023/08/17 08:32:25;;;;;;;14.00;10.15;;;26.40;99.90;;;;;;5083299;28;20040;-75
2023/08/17 08:34:56;;;;;;;13.65;9.88;;;26.30;99.90;;;;;;5077402;28;20045;-78
2023/08/17 08:37:25;;;;;;;14.80;10.15;;;26.30;99.90;;;;;;5066023;28;20453;-77
2023/08/17 08:40:12;;;;;;;14.25;10.32;;;26.30;99.90;;;;;;5086545;28;20044;-76
2023/08/17 08:42:39;;;;;;;15.98;12.60;;;26.20;99.90;;;;;;5078208;28;20102;-74
2023/08/17 08:45:07;;;;;;;23.02;18.08;;;26.30;99.90;;;;;;5065306;28;20036;-75
2023/08/17 08:47:36;;;;;;;16.77;10.52;;;26.50;99.90;;;;;;5082300;28;20040;-76
2023/08/17 08:50:32;;;;;;;12.20;10.02;;;26.50;99.90;;;;;;5071080;28;20507;-75
2023/08/17 08:53:00;;;;;;;13.48;9.85;;;26.80;99.90;;;;;;5092619;28;20086;-75
2023/08/17 08:55:36;;;;;;;19.17;9.95;;;26.80;99.90;;;;;;5077769;28;20140;-77
2023/08/17 08:58:12;;;;;;;12.45;8.90;;;26.90;99.90;;;;;;5079411;28;20043;-76
2023/08/17 09:00:40;;;;;;;12.85;9.80;;;27.20;99.90;;;;;;5073384;28;20314;-76
2023/08/17 09:03:33;;;;;;;11.15;9.38;;;27.10;99.90;;;;;;5076097;28;20017;-77
2023/08/17 09:06:27;;;;;;;16.45;8.82;;;27.30;99.90;;;;;;5080840;28;20449;-76
2023/08/17 09:08:57;;;;;;;14.63;9.50;;;27.40;99.90;;;;;;5078119;28;20056;-77
2023/08/17 09:11:24;;;;;;;13.20;9.50;;;27.50;99.90;;;;;;5084916;28;20036;-75
2023/08/17 09:13:53;;;;;;;10.27;8.48;;;27.40;99.90;;;;;;5088570;28;20040;-75
2023/08/17 09:16:21;;;;;;;14.93;9.52;;;27.50;99.90;;;;;;5075409;28;20067;-76
2023/08/17 09:18:55;;;;;;;14.48;9.05;;;27.70;99.90;;;;;;5084166;28;20036;-77
2023/08/17 09:24:18;;;;;;;11.98;8.23;;;28.10;99.90;;;;;;5071205;28;20047;-76
2023/08/17 09:26:49;;;;;;;12.02;9.30;;;27.70;99.90;;;;;;5091284;28;20089;-77
2023/08/17 09:29:20;;;;;;;15.15;8.70;;;28.10;99.90;;;;;;5082701;28;20115;-76
2023/08/17 09:32:14;;;;;;;13.32;8.15;;;28.10;99.90;;;;;;5068451;28;20126;-76
2023/08/17 09:34:43;;;;;;;13.35;9.18;;;28.00;99.90;;;;;;5090627;28;20040;-74
2023/08/17 09:37:16;;;;;;;11.52;8.45;;;28.10;99.70;;;;;;5077871;28;20032;-77
2023/08/17 09:39:44;;;;;;;14.35;8.85;;;28.30;99.70;;;;;;5087253;28;20039;-78
2023/08/17 09:42:11;;;;;;;11.50;8.48;;;28.60;99.30;;;;;;5073963;28;20070;-79
2023/08/17 09:44:42;;;;;;;11.80;8.40;;;28.70;98.80;;;;;;5075449;28;20048;-78
2023/08/17 09:47:17;;;;;;;13.25;8.57;;;28.80;99.00;;;;;;5089053;28;20102;-82
2023/08/17 09:50:13;;;;;;;13.18;8.65;;;28.80;98.20;;;;;;5078059;28;20036;-81
2023/08/17 09:52:54;;;;;;;;;;;28.60;98.50;;;;;;5080911;28;20044;-80
2023/08/17 09:55:23;;;;;;;11.95;8.38;;;28.70;98.40;;;;;;5073406;28;20339;-80
2023/08/17 09:57:52;;;;;;;10.65;7.55;;;28.80;98.40;;;;;;5077782;28;20036;-82
2023/08/17 10:00:23;;;;;;;;;;;29.10;98.60;;;;;;5098827;28;20037;-82
2023/08/17 10:02:51;;;;;;;13.18;8.20;;;29.30;97.50;;;;;;5066746;28;19969;-82
2023/08/17 10:05:20;;;;;;;13.98;8.13;;;29.10;97.20;;;;;;5071724;28;20456;-82
2023/08/17 10:07:58;;;;;;;13.80;10.98;;;29.40;97.00;;;;;;5081915;28;20115;-79
2023/08/17 10:10:34;;;;;;;35.05;27.85;;;29.60;96.60;;;;;;5063846;28;20049;-80
2023/08/17 10:13:13;;;;;;;17.52;12.90;;;29.50;96.30;;;;;;5073451;28;20068;-80
2023/08/17 10:15:53;;;;;;;17.50;10.15;;;29.60;96.40;;;;;;5086671;28;20037;-77
2023/08/17 10:19:10;;;;;;;13.50;9.43;;;29.30;96.20;;;;;;5064785;28;20436;-79
2023/08/17 10:21:56;;;;;;;16.95;11.75;;;29.40;95.40;;;;;;5019254;28;20046;-80
2023/08/17 10:24:23;;;;;;;25.20;17.52;;;29.50;95.40;;;;;;5021386;28;20109;-80
2023/08/17 10:26:54;;;;;;;17.13;12.52;;;29.40;96.00;;;;;;5017250;28;20040;-83
2023/08/17 10:29:27;;;;;;;16.05;11.95;;;29.40;95.30;;;;;;5021867;28;20135;-81
2023/08/17 10:32:02;;;;;;;14.38;9.88;;;29.30;95.60;;;;;;5076614;28;20037;-78
2023/08/17 10:34:31;;;;;;;11.65;9.35;;;29.30;95.60;;;;;;5053514;28;20044;-79
2023/08/17 10:37:00;;;;;;;12.30;8.55;;;29.30;95.90;;;;;;5074872;28;20044;-79
2023/08/17 10:39:30;;;;;;;11.70;8.50;;;29.40;95.70;;;;;;5075879;28;20072;-80
2023/08/17 10:41:58;;;;;;;11.05;8.25;;;29.70;96.10;;;;;;5060252;28;20052;-79
2023/08/17 10:44:46;;;;;;;10.23;8.30;;;29.80;95.40;;;;;;5059370;28;20044;-80
2023/08/17 10:47:33;;;;;;;10.57;7.80;;;29.90;94.70;;;;;;5077452;28;20059;-81
2023/08/17 10:50:09;;;;;;;13.52;8.45;;;30.30;95.00;;;;;;5072536;28;20397;-77
2023/08/17 10:52:37;;;;;;;13.80;10.07;;;30.80;94.00;;;;;;5081725;28;20037;-79
2023/08/17 10:55:16;;;;;;;74.22;52.13;;;30.50;93.50;;;;;;5080861;28;20052;-81
2023/08/17 10:57:59;;;;;;;22.08;15.63;;;30.70;93.40;;;;;;5076014;28;20037;-79
2023/08/17 11:00:44;;;;;;;17.95;11.75;;;30.30;93.00;;;;;;5075119;28;20052;-81
2023/08/17 11:03:20;;;;;;;14.45;8.40;;;30.20;92.90;;;;;;5072915;28;20429;-79
2023/08/17 11:06:35;;;;;;;11.73;8.50;;;30.10;93.50;;;;;;5047788;28;20492;-79
2023/08/17 11:09:34;;;;;;;13.60;8.88;;;30.50;92.60;;;;;;5074975;28;20032;-79
2023/08/17 11:12:44;;;;;;;10.45;8.80;;;30.80;92.30;;;;;;5080043;28;20052;-80
2023/08/17 11:15:26;;;;;;;10.95;8.70;;;31.10;91.70;;;;;;5058476;28;20099;-82
2023/08/17 11:17:58;;;;;;;44.55;33.97;;;31.30;91.20;;;;;;5059453;28;20076;-79
2023/08/17 11:20:31;;;;;;;58.30;43.63;;;31.30;90.80;;;;;;5060256;28;20104;-82
2023/08/17 11:23:09;;;;;;;14.13;10.75;;;30.90;91.40;;;;;;5080044;28;20048;-81
2023/08/17 11:26:18;;;;;;;13.05;9.05;;;31.00;91.20;;;;;;5073011;28;20079;-85
2023/08/17 11:29:00;;;;;;;13.27;8.63;;;31.30;90.90;;;;;;5065801;28;20041;-81
2023/08/17 11:31:32;;;;;;;11.63;8.40;;;31.60;90.20;;;;;;5081637;28;20040;-81
2023/08/17 11:34:28;;;;;;;9.90;8.43;;;31.90;89.00;;;;;;5086024;28;20021;-82
2023/08/17 11:37:25;;;;;;;9.85;7.82;;;31.80;90.00;;;;;;5086061;28;20095;-82
2023/08/17 11:39:55;;;;;;;14.05;9.48;;;31.80;87.50;;;;;;5077669;28;20047;-82
2023/08/17 11:42:47;;;;;;;13.48;8.65;;;31.80;87.80;;;;;;5087158;28;20025;-83
2023/08/17 11:45:18;;;;;;;10.27;8.07;;;31.90;88.80;;;;;;5090150;28;20463;-86
2023/08/17 11:48:10;;;;;;;10.40;8.27;;;32.10;87.20;;;;;;5092020;28;20050;-82
2023/08/17 11:50:52;;;;;;;10.25;8.20;;;31.90;86.60;;;;;;5082012;28;20040;-85
2023/08/17 11:53:53;;;;;;;15.48;9.27;;;32.00;87.00;;;;;;5092140;28;20060;-82
2023/08/17 11:56:27;;;;;;;11.38;8.43;;;32.20;86.70;;;;;;5085353;28;20047;-83
2023/08/17 11:58:56;;;;;;;13.38;8.45;;;32.30;86.30;;;;;;5099053;28;20040;-83
2023/08/17 12:01:34;;;;;;;11.75;8.40;;;32.10;86.10;;;;;;5088486;28;20064;-82
2023/08/17 12:04:28;;;;;;;10.43;8.20;;;32.30;84.40;;;;;;5100105;28;20035;-88
2023/08/17 12:08:13;;;;;;;23.02;19.13;;;32.40;84.60;;;;;;5083430;28;20061;-87
2023/08/17 12:11:13;;;;;;;64.05;49.03;;;32.20;83.30;;;;;;5100264;28;20035;-87
2023/08/17 12:14:28;;;;;;;30.35;24.20;;;32.00;83.90;;;;;;5106488;28;20043;-85
2023/08/17 12:17:32;;;;;;;17.48;13.68;;;32.00;81.60;;;;;;5105747;28;20478;-80
2023/08/17 12:20:25;;;;;;;17.35;12.30;;;32.40;82.90;;;;;;5082180;28;20016;-77
2023/08/17 12:23:01;;;;;;;12.55;10.02;;;32.70;82.20;;;;;;5076757;28;20109;-78
2023/08/17 12:25:54;;;;;;;14.57;8.85;;;32.80;82.60;;;;;;5095524;28;20020;-79
2023/08/17 12:28:33;;;;;;;12.68;9.00;;;33.00;82.20;;;;;;5083865;28;20068;-82
2023/08/17 12:31:36;;;;;;;26.65;13.98;;;33.20;82.70;;;;;;5092295;28;20020;-81
2023/08/17 12:34:16;;;;;;;12.00;9.32;;;33.00;80.40;;;;;;5086659;28;20062;-82
2023/08/17 12:37:18;;;;;;;21.42;16.33;;;32.20;80.40;;;;;;5102395;28;20067;-80
2023/08/17 12:39:58;;;;;;;17.35;9.55;;;32.30;81.00;;;;;;5090212;28;20552;-82
2023/08/17 12:42:29;;;;;;;13.02;8.68;;;32.50;80.60;;;;;;5098528;28;20036;-80
2023/08/17 12:44:59;;;;;;;10.73;7.97;;;32.60;80.80;;;;;;5066555;28;20056;-80
2023/08/17 12:47:42;;;;;;;12.88;8.77;;;32.90;80.10;;;;;;5097139;28;20050;-79
2023/08/17 12:50:17;;;;;;;13.50;8.27;;;32.70;80.30;;;;;;5062866;28;20056;-80
2023/08/17 12:52:45;;;;;;;12.48;8.68;;;32.70;79.80;;;;;;5055842;28;20041;-79
2023/08/17 12:55:21;;;;;;;14.00;8.00;;;32.80;79.60;;;;;;5081974;28;20489;-81
2023/08/17 12:57:51;;;;;;;11.57;8.13;;;33.10;79.60;;;;;;5095765;28;20039;-79
2023/08/17 13:00:23;;;;;;;13.88;9.02;;;33.30;79.30;;;;;;5100141;28;20052;-82
2023/08/17 13:02:57;;;;;;;15.48;8.25;;;33.40;78.90;;;;;;5073261;28;20040;-79
2023/08/17 13:05:24;;;;;;;10.05;7.68;;;33.60;78.40;;;;;;5075218;28;20458;-79
2023/08/17 13:07:53;;;;;;;12.75;8.95;;;33.50;78.00;;;;;;5084057;28;20056;-82
2023/08/17 13:10:26;;;;;;;14.20;10.98;;;33.80;78.10;;;;;;5084461;28;20032;-78
2023/08/17 13:12:59;;;;;;;20.45;16.45;;;33.80;75.10;;;;;;5075591;28;20052;-79
2023/08/17 13:15:33;;;;;;;19.27;14.23;;;33.10;73.60;;;;;;5060487;28;20032;-79